sensor_id;sensor_type;location;lat;lon;timestamp;P1;durP1;ratioP1;P2;durP2;ratioP2
25653;SDS011;13511;48.622;9.230;2023-06-05T00:01:44;9.30;;;8.65;;
25653;SDS011;13511;48.622;9.230;2023-06-05T00:04:10;10.80;;;8.70;;
25653;SDS011;13511;48.622;9.230;2023-06-05T00:06:36;9.60;;;8.80;;
25653;SDS011;13511;48.622;9.230;2023-06-05T00:09:05;8.98;;;8.48;;
25653;SDS011;13511;48.622;9.230;2023-06-05T00:11:31;9.18;;;8.55;;
25653;SDS011;13511;48.622;9.230;2023-06-05T00:13:57;8.90;;;8.10;;
25653;SDS011;13511;48.622;9.230;2023-06-05T00:16:23;10.68;;;8.20;;
25653;SDS011;13511;48.622;9.230;2023-06-05T00:18:49;9.02;;;8.23;;
25653;SDS011;13511;48.622;9.230;2023-06-05T00:21:16;9.05;;;8.45;;
25653;SDS011;13511;48.622;9.230;2023-06-05T00:23:42;9.25;;;8.43;;
25653;SDS011;13511;48.622;9.230;2023-06-05T00:26:08;9.82;;;8.90;;
25653;SDS011;13511;48.622;9.230;2023-06-05T00:28:34;9.18;;;8.68;;
25653;SDS011;13511;48.622;9.230;2023-06-05T00:31:01;8.75;;;8.25;;
25653;SDS011;13511;48.622;9.230;2023-06-05T00:33:27;9.60;;;8.80;;
25653;SDS011;13511;48.622;9.230;2023-06-05T00:35:55;10.07;;;9.13;;
25653;SDS011;13511;48.622;9.230;2023-06-05T00:38:21;9.88;;;9.10;;
25653;SDS011;13511;48.622;9.230;2023-06-05T00:40:47;9.73;;;9.02;;
25653;SDS011;13511;48.622;9.230;2023-06-05T00:43:13;9.85;;;9.18;;
25653;SDS011;13511;48.622;9.230;2023-06-05T00:45:39;9.85;;;8.68;;
25653;SDS011;13511;48.622;9.230;2023-06-05T00:48:06;9.00;;;8.50;;
25653;SDS011;13511;48.622;9.230;2023-06-05T00:50:32;9.88;;;8.98;;
25653;SDS011;13511;48.622;9.230;2023-06-05T00:53:00;9.73;;;8.82;;
25653;SDS011;13511;48.622;9.230;2023-06-05T00:55:27;8.25;;;7.85;;
25653;SDS011;13511;48.622;9.230;2023-06-05T00:57:53;9.18;;;8.63;;
25653;SDS011;13511;48.622;9.230;2023-06-05T01:00:19;9.18;;;8.57;;
25653;SDS011;13511;48.622;9.230;2023-06-05T01:02:46;9.90;;;9.20;;
25653;SDS011;13511;48.622;9.230;2023-06-05T01:05:12;9.32;;;8.63;;
25653;SDS011;13511;48.622;9.230;2023-06-05T01:07:39;9.32;;;8.77;;
25653;SDS011;13511;48.622;9.230;2023-06-05T01:10:06;9.63;;;9.02;;
25653;SDS011;13511;48.622;9.230;2023-06-05T01:12:38;9.70;;;9.10;;
25653;SDS011;13511;48.622;9.230;2023-06-05T01:15:06;10.07;;;9.25;;
25653;SDS011;13511;48.622;9.230;2023-06-05T01:17:33;10.05;;;9.20;;
25653;SDS011;13511;48.622;9.230;2023-06-05T01:20:00;10.75;;;9.70;;
25653;SDS011;13511;48.622;9.230;2023-06-05T01:22:33;9.60;;;8.95;;
25653;SDS011;13511;48.622;9.230;2023-06-05T01:24:59;9.88;;;9.27;;
25653;SDS011;13511;48.622;9.230;2023-06-05T01:35:09;10.48;;;9.68;;
25653;SDS011;13511;48.622;9.230;2023-06-05T01:37:36;10.20;;;9.52;;
25653;SDS011;13511;48.622;9.230;2023-06-05T01:40:07;10.88;;;9.90;;
25653;SDS011;13511;48.622;9.230;2023-06-05T01:42:36;9.95;;;9.25;;
25653;SDS011;13511;48.622;9.230;2023-06-05T01:45:03;9.88;;;9.07;;
25653;SDS011;13511;48.622;9.230;2023-06-05T01:47:30;9.85;;;9.05;;
25653;SDS011;13511;48.622;9.230;2023-06-05T01:49:57;9.25;;;8.57;;
25653;SDS011;13511;48.622;9.230;2023-06-05T01:52:23;9.85;;;9.20;;
25653;SDS011;13511;48.622;9.230;2023-06-05T01:54:49;10.77;;;9.82;;
25653;SDS011;13511;48.622;9.230;2023-06-05T01:57:15;10.00;;;9.40;;
25653;SDS011;13511;48.622;9.230;2023-06-05T01:59:41;10.13;;;9.52;;
25653;SDS011;13511;48.622;9.230;2023-06-05T02:02:08;9.98;;;9.38;;
25653;SDS011;13511;48.622;9.230;2023-06-05T02:04:34;10.63;;;9.85;;
25653;SDS011;13511;48.622;9.230;2023-06-05T02:07:02;11.00;;;10.05;;
25653;SDS011;13511;48.622;9.230;2023-06-05T02:09:30;10.63;;;10.02;;
25653;SDS011;13511;48.622;9.230;2023-06-05T02:12:00;10.80;;;10.00;;
25653;SDS011;13511;48.622;9.230;2023-06-05T02:17:03;10.60;;;9.77;;
25653;SDS011;13511;48.622;9.230;2023-06-05T02:19:31;10.70;;;9.90;;
25653;SDS011;13511;48.622;9.230;2023-06-05T02:21:57;10.43;;;9.48;;
25653;SDS011;13511;48.622;9.230;2023-06-05T02:24:23;10.77;;;9.88;;
25653;SDS011;13511;48.622;9.230;2023-06-05T02:26:50;10.27;;;9.68;;
25653;SDS011;13511;48.622;9.230;2023-06-05T02:29:16;10.27;;;9.68;;
25653;SDS011;13511;48.622;9.230;2023-06-05T02:31:42;10.30;;;9.70;;
25653;SDS011;13511;48.622;9.230;2023-06-05T02:34:09;10.70;;;10.00;;
25653;SDS011;13511;48.622;9.230;2023-06-05T02:36:35;11.25;;;10.45;;
25653;SDS011;13511;48.622;9.230;2023-06-05T02:39:02;10.70;;;10.00;;
25653;SDS011;13511;48.622;9.230;2023-06-05T02:41:29;10.60;;;9.90;;
25653;SDS011;13511;48.622;9.230;2023-06-05T02:43:55;11.82;;;11.13;;
25653;SDS011;13511;48.622;9.230;2023-06-05T02:46:22;10.50;;;9.77;;
25653;SDS011;13511;48.622;9.230;2023-06-05T02:48:50;11.65;;;10.75;;
25653;SDS011;13511;48.622;9.230;2023-06-05T02:51:16;10.43;;;9.75;;
25653;SDS011;13511;48.622;9.230;2023-06-05T02:53:42;10.75;;;10.05;;
25653;SDS011;13511;48.622;9.230;2023-06-05T02:56:08;10.05;;;9.40;;
25653;SDS011;13511;48.622;9.230;2023-06-05T02:58:35;10.73;;;10.02;;
25653;SDS011;13511;48.622;9.230;2023-06-05T03:01:02;10.25;;;9.57;;
25653;SDS011;13511;48.622;9.230;2023-06-05T03:03:31;11.02;;;10.18;;
25653;SDS011;13511;48.622;9.230;2023-06-05T03:05:58;11.75;;;10.75;;
25653;SDS011;13511;48.622;9.230;2023-06-05T03:08:35;11.70;;;10.63;;
25653;SDS011;13511;48.622;9.230;2023-06-05T03:11:02;10.73;;;10.02;;
25653;SDS011;13511;48.622;9.230;2023-06-05T03:13:29;10.80;;;10.10;;
25653;SDS011;13511;48.622;9.230;2023-06-05T03:15:55;10.82;;;10.02;;
25653;SDS011;13511;48.622;9.230;2023-06-05T03:18:22;10.68;;;10.07;;
25653;SDS011;13511;48.622;9.230;2023-06-05T03:20:49;11.05;;;10.30;;
25653;SDS011;13511;48.622;9.230;2023-06-05T03:23:16;11.30;;;10.48;;
25653;SDS011;13511;48.622;9.230;2023-06-05T03:25:42;10.38;;;9.68;;
25653;SDS011;13511;48.622;9.230;2023-06-05T03:28:08;10.93;;;10.13;;
25653;SDS011;13511;48.622;9.230;2023-06-05T03:30:34;11.15;;;10.43;;
25653;SDS011;13511;48.622;9.230;2023-06-05T03:33:00;10.85;;;10.20;;
25653;SDS011;13511;48.622;9.230;2023-06-05T03:35:26;10.93;;;10.15;;
25653;SDS011;13511;48.622;9.230;2023-06-05T03:37:53;11.43;;;10.63;;
25653;SDS011;13511;48.622;9.230;2023-06-05T03:40:19;11.02;;;10.00;;
25653;SDS011;13511;48.622;9.230;2023-06-05T03:42:45;11.27;;;10.18;;
25653;SDS011;13511;48.622;9.230;2023-06-05T03:45:11;10.30;;;9.60;;
25653;SDS011;13511;48.622;9.230;2023-06-05T03:47:38;11.15;;;10.25;;
25653;SDS011;13511;48.622;9.230;2023-06-05T03:50:04;10.60;;;9.70;;
25653;SDS011;13511;48.622;9.230;2023-06-05T03:52:31;10.50;;;9.73;;
25653;SDS011;13511;48.622;9.230;2023-06-05T03:54:57;10.70;;;10.10;;
25653;SDS011;13511;48.622;9.230;2023-06-05T03:57:25;10.80;;;10.15;;
25653;SDS011;13511;48.622;9.230;2023-06-05T03:59:51;11.13;;;10.25;;
25653;SDS011;13511;48.622;9.230;2023-06-05T04:02:17;10.65;;;9.82;;
25653;SDS011;13511;48.622;9.230;2023-06-05T04:04:43;11.10;;;10.30;;
25653;SDS011;13511;48.622;9.230;2023-06-05T04:07:09;10.25;;;9.65;;
25653;SDS011;13511;48.622;9.230;2023-06-05T04:09:36;11.10;;;10.27;;
25653;SDS011;13511;48.622;9.230;2023-06-05T04:12:02;10.93;;;10.05;;
25653;SDS011;13511;48.622;9.230;2023-06-05T04:14:28;9.88;;;9.18;;
25653;SDS011;13511;48.622;9.230;2023-06-05T04:16:54;10.35;;;9.63;;
25653;SDS011;13511;48.622;9.230;2023-06-05T04:19:20;10.88;;;9.90;;
25653;SDS011;13511;48.622;9.230;2023-06-05T04:21:46;10.15;;;9.45;;
25653;SDS011;13511;48.622;9.230;2023-06-05T04:24:12;9.63;;;9.02;;
25653;SDS011;13511;48.622;9.230;2023-06-05T04:26:39;9.75;;;9.05;;
25653;SDS011;13511;48.622;9.230;2023-06-05T04:29:10;9.93;;;9.02;;
25653;SDS011;13511;48.622;9.230;2023-06-05T04:31:40;9.20;;;8.52;;
25653;SDS011;13511;48.622;9.230;2023-06-05T04:34:07;10.48;;;9.68;;
25653;SDS011;13511;48.622;9.230;2023-06-05T04:36:33;9.32;;;8.82;;
25653;SDS011;13511;48.622;9.230;2023-06-05T04:39:00;9.90;;;9.02;;
25653;SDS011;13511;48.622;9.230;2023-06-05T04:41:28;10.40;;;9.32;;
25653;SDS011;13511;48.622;9.230;2023-06-05T04:43:54;9.57;;;8.85;;
25653;SDS011;13511;48.622;9.230;2023-06-05T04:46:22;9.00;;;8.40;;
25653;SDS011;13511;48.622;9.230;2023-06-05T04:48:48;10.18;;;9.38;;
25653;SDS011;13511;48.622;9.230;2023-06-05T04:51:15;10.63;;;9.05;;
25653;SDS011;13511;48.622;9.230;2023-06-05T04:53:41;10.00;;;9.30;;
25653;SDS011;13511;48.622;9.230;2023-06-05T04:56:08;10.18;;;9.38;;
25653;SDS011;13511;48.622;9.230;2023-06-05T04:58:34;9.65;;;9.05;;
25653;SDS011;13511;48.622;9.230;2023-06-05T05:01:00;10.40;;;9.43;;
25653;SDS011;13511;48.622;9.230;2023-06-05T05:03:31;10.33;;;9.50;;
25653;SDS011;13511;48.622;9.230;2023-06-05T05:05:57;11.68;;;10.68;;
25653;SDS011;13511;48.622;9.230;2023-06-05T05:08:23;10.30;;;9.50;;
25653;SDS011;13511;48.622;9.230;2023-06-05T05:10:49;10.77;;;9.68;;
25653;SDS011;13511;48.622;9.230;2023-06-05T05:13:15;10.07;;;9.35;;
25653;SDS011;13511;48.622;9.230;2023-06-05T05:15:41;10.82;;;9.95;;
25653;SDS011;13511;48.622;9.230;2023-06-05T05:18:07;10.38;;;9.35;;
25653;SDS011;13511;48.622;9.230;2023-06-05T05:20:33;10.38;;;9.38;;
25653;SDS011;13511;48.622;9.230;2023-06-05T05:23:00;10.45;;;9.70;;
25653;SDS011;13511;48.622;9.230;2023-06-05T05:25:26;10.82;;;9.77;;
25653;SDS011;13511;48.622;9.230;2023-06-05T05:27:52;9.77;;;9.02;;
25653;SDS011;13511;48.622;9.230;2023-06-05T05:30:18;9.90;;;9.20;;
25653;SDS011;13511;48.622;9.230;2023-06-05T05:32:44;10.48;;;9.52;;
25653;SDS011;13511;48.622;9.230;2023-06-05T05:35:10;10.52;;;9.77;;
25653;SDS011;13511;48.622;9.230;2023-06-05T05:37:36;9.80;;;9.20;;
25653;SDS011;13511;48.622;9.230;2023-06-05T05:40:02;11.63;;;9.45;;
25653;SDS011;13511;48.622;9.230;2023-06-05T05:42:30;10.10;;;9.20;;
25653;SDS011;13511;48.622;9.230;2023-06-05T05:44:56;9.88;;;9.05;;
25653;SDS011;13511;48.622;9.230;2023-06-05T05:47:22;10.07;;;9.25;;
25653;SDS011;13511;48.622;9.230;2023-06-05T05:49:48;9.35;;;8.75;;
25653;SDS011;13511;48.622;9.230;2023-06-05T05:52:14;9.75;;;9.07;;
25653;SDS011;13511;48.622;9.230;2023-06-05T05:54:40;9.40;;;8.73;;
25653;SDS011;13511;48.622;9.230;2023-06-05T05:57:05;9.20;;;8.45;;
25653;SDS011;13511;48.622;9.230;2023-06-05T05:59:32;10.02;;;9.30;;
25653;SDS011;13511;48.622;9.230;2023-06-05T06:01:58;10.20;;;9.30;;
25653;SDS011;13511;48.622;9.230;2023-06-05T06:04:25;9.55;;;9.02;;
25653;SDS011;13511;48.622;9.230;2023-06-05T06:06:51;9.60;;;9.00;;
25653;SDS011;13511;48.622;9.230;2023-06-05T06:09:17;12.10;;;10.18;;
25653;SDS011;13511;48.622;9.230;2023-06-05T06:11:44;10.55;;;9.82;;
25653;SDS011;13511;48.622;9.230;2023-06-05T06:14:10;10.88;;;10.10;;
25653;SDS011;13511;48.622;9.230;2023-06-05T06:16:36;10.60;;;9.50;;
25653;SDS011;13511;48.622;9.230;2023-06-05T06:19:03;9.48;;;8.85;;
25653;SDS011;13511;48.622;9.230;2023-06-05T06:21:29;10.20;;;9.30;;
25653;SDS011;13511;48.622;9.230;2023-06-05T06:23:55;10.38;;;9.68;;
25653;SDS011;13511;48.622;9.230;2023-06-05T06:26:22;10.57;;;9.68;;
25653;SDS011;13511;48.622;9.230;2023-06-05T06:28:48;9.70;;;9.10;;
25653;SDS011;13511;48.622;9.230;2023-06-05T06:31:14;10.15;;;9.32;;
25653;SDS011;13511;48.622;9.230;2023-06-05T06:33:40;9.95;;;9.18;;
25653;SDS011;13511;48.622;9.230;2023-06-05T06:36:06;9.73;;;8.93;;
25653;SDS011;13511;48.622;9.230;2023-06-05T06:38:32;9.45;;;8.77;;
25653;SDS011;13511;48.622;9.230;2023-06-05T06:40:58;10.00;;;9.30;;
25653;SDS011;13511;48.622;9.230;2023-06-05T06:43:24;9.85;;;9.00;;
25653;SDS011;13511;48.622;9.230;2023-06-05T06:45:52;10.32;;;8.82;;
25653;SDS011;13511;48.622;9.230;2023-06-05T06:48:18;11.23;;;9.13;;
25653;SDS011;13511;48.622;9.230;2023-06-05T06:50:45;10.10;;;9.20;;
25653;SDS011;13511;48.622;9.230;2023-06-05T06:53:11;16.42;;;9.75;;
25653;SDS011;13511;48.622;9.230;2023-06-05T06:55:37;10.18;;;9.50;;
25653;SDS011;13511;48.622;9.230;2023-06-05T06:58:03;10.65;;;9.77;;
25653;SDS011;13511;48.622;9.230;2023-06-05T07:00:30;10.90;;;9.35;;
25653;SDS011;13511;48.622;9.230;2023-06-05T07:02:56;12.00;;;9.68;;
25653;SDS011;13511;48.622;9.230;2023-06-05T07:05:22;10.48;;;9.65;;
25653;SDS011;13511;48.622;9.230;2023-06-05T07:07:48;10.05;;;9.30;;
25653;SDS011;13511;48.622;9.230;2023-06-05T07:10:14;9.68;;;9.07;;
25653;SDS011;13511;48.622;9.230;2023-06-05T07:12:40;10.25;;;9.55;;
25653;SDS011;13511;48.622;9.230;2023-06-05T07:15:06;10.38;;;9.45;;
25653;SDS011;13511;48.622;9.230;2023-06-05T07:17:32;10.20;;;9.20;;
25653;SDS011;13511;48.622;9.230;2023-06-05T07:19:59;11.35;;;9.70;;
25653;SDS011;13511;48.622;9.230;2023-06-05T07:22:25;11.05;;;9.95;;
25653;SDS011;13511;48.622;9.230;2023-06-05T07:24:53;9.88;;;9.05;;
25653;SDS011;13511;48.622;9.230;2023-06-05T07:27:19;9.68;;;9.00;;
25653;SDS011;13511;48.622;9.230;2023-06-05T07:29:46;10.15;;;9.32;;
25653;SDS011;13511;48.622;9.230;2023-06-05T07:32:12;10.80;;;8.93;;
25653;SDS011;13511;48.622;9.230;2023-06-05T07:34:38;9.93;;;9.23;;
25653;SDS011;13511;48.622;9.230;2023-06-05T07:37:05;10.13;;;9.23;;
25653;SDS011;13511;48.622;9.230;2023-06-05T07:39:32;12.27;;;9.45;;
25653;SDS011;13511;48.622;9.230;2023-06-05T07:41:58;10.02;;;9.23;;
25653;SDS011;13511;48.622;9.230;2023-06-05T07:44:25;9.02;;;8.43;;
25653;SDS011;13511;48.622;9.230;2023-06-05T07:46:51;10.77;;;9.80;;
25653;SDS011;13511;48.622;9.230;2023-06-05T07:49:17;11.52;;;9.82;;
25653;SDS011;13511;48.622;9.230;2023-06-05T07:51:44;9.80;;;9.10;;
25653;SDS011;13511;48.622;9.230;2023-06-05T07:54:13;13.65;;;9.65;;
25653;SDS011;13511;48.622;9.230;2023-06-05T07:56:40;10.68;;;9.60;;
25653;SDS011;13511;48.622;9.230;2023-06-05T07:59:06;9.80;;;8.75;;
25653;SDS011;13511;48.622;9.230;2023-06-05T08:01:33;9.82;;;9.13;;
25653;SDS011;13511;48.622;9.230;2023-06-05T08:04:03;9.75;;;8.88;;
25653;SDS011;13511;48.622;9.230;2023-06-05T08:06:29;10.32;;;9.52;;
25653;SDS011;13511;48.622;9.230;2023-06-05T08:08:55;11.63;;;9.23;;
25653;SDS011;13511;48.622;9.230;2023-06-05T08:11:21;9.90;;;9.00;;
25653;SDS011;13511;48.622;9.230;2023-06-05T08:13:47;9.88;;;8.75;;
25653;SDS011;13511;48.622;9.230;2023-06-05T08:16:13;9.85;;;8.95;;
25653;SDS011;13511;48.622;9.230;2023-06-05T08:18:40;11.18;;;9.10;;
25653;SDS011;13511;48.622;9.230;2023-06-05T08:21:06;10.20;;;8.02;;
25653;SDS011;13511;48.622;9.230;2023-06-05T08:23:32;9.80;;;8.95;;
25653;SDS011;13511;48.622;9.230;2023-06-05T08:25:58;9.48;;;8.77;;
25653;SDS011;13511;48.622;9.230;2023-06-05T08:28:24;9.52;;;8.82;;
25653;SDS011;13511;48.622;9.230;2023-06-05T08:30:50;10.10;;;9.20;;
25653;SDS011;13511;48.622;9.230;2023-06-05T08:33:22;10.57;;;9.75;;
25653;SDS011;13511;48.622;9.230;2023-06-05T08:35:48;10.82;;;9.93;;
25653;SDS011;13511;48.622;9.230;2023-06-05T08:38:14;11.48;;;10.38;;
25653;SDS011;13511;48.622;9.230;2023-06-05T08:40:40;11.35;;;10.45;;
25653;SDS011;13511;48.622;9.230;2023-06-05T08:43:06;11.20;;;10.20;;
25653;SDS011;13511;48.622;9.230;2023-06-05T08:45:33;10.65;;;9.57;;
25653;SDS011;13511;48.622;9.230;2023-06-05T08:47:59;15.40;;;10.38;;
25653;SDS011;13511;48.622;9.230;2023-06-05T08:50:29;10.98;;;10.05;;
25653;SDS011;13511;48.622;9.230;2023-06-05T08:53:00;11.65;;;10.52;;
25653;SDS011;13511;48.622;9.230;2023-06-05T08:55:27;12.32;;;10.10;;
25653;SDS011;13511;48.622;9.230;2023-06-05T08:57:54;11.70;;;10.77;;
25653;SDS011;13511;48.622;9.230;2023-06-05T09:00:20;12.27;;;11.02;;
25653;SDS011;13511;48.622;9.230;2023-06-05T09:02:47;11.18;;;10.20;;
25653;SDS011;13511;48.622;9.230;2023-06-05T09:05:13;11.70;;;9.88;;
25653;SDS011;13511;48.622;9.230;2023-06-05T09:07:39;10.27;;;9.38;;
25653;SDS011;13511;48.622;9.230;2023-06-05T09:10:06;10.95;;;9.55;;
25653;SDS011;13511;48.622;9.230;2023-06-05T09:12:51;9.80;;;9.10;;
25653;SDS011;13511;48.622;9.230;2023-06-05T09:15:25;11.10;;;10.13;;
25653;SDS011;13511;48.622;9.230;2023-06-05T09:18:13;10.82;;;9.95;;
25653;SDS011;13511;48.622;9.230;2023-06-05T09:20:43;10.25;;;9.25;;
25653;SDS011;13511;48.622;9.230;2023-06-05T09:23:25;10.18;;;9.52;;
25653;SDS011;13511;48.622;9.230;2023-06-05T09:25:52;10.65;;;9.85;;
25653;SDS011;13511;48.622;9.230;2023-06-05T09:28:18;11.02;;;9.98;;
25653;SDS011;13511;48.622;9.230;2023-06-05T09:33:23;10.32;;;9.45;;
25653;SDS011;13511;48.622;9.230;2023-06-05T09:36:00;10.52;;;9.75;;
25653;SDS011;13511;48.622;9.230;2023-06-05T09:38:27;10.68;;;9.77;;
25653;SDS011;13511;48.622;9.230;2023-06-05T09:41:00;9.80;;;9.05;;
25653;SDS011;13511;48.622;9.230;2023-06-05T09:43:27;10.35;;;9.38;;
25653;SDS011;13511;48.622;9.230;2023-06-05T09:45:53;10.38;;;9.40;;
25653;SDS011;13511;48.622;9.230;2023-06-05T09:48:19;10.50;;;9.70;;
25653;SDS011;13511;48.622;9.230;2023-06-05T09:50:45;10.82;;;9.82;;
25653;SDS011;13511;48.622;9.230;2023-06-05T09:53:12;9.70;;;8.95;;
25653;SDS011;13511;48.622;9.230;2023-06-05T09:55:41;10.43;;;9.55;;
25653;SDS011;13511;48.622;9.230;2023-06-05T09:58:07;11.60;;;9.13;;
25653;SDS011;13511;48.622;9.230;2023-06-05T10:03:07;9.40;;;8.70;;
25653;SDS011;13511;48.622;9.230;2023-06-05T10:05:36;11.32;;;9.73;;
25653;SDS011;13511;48.622;9.230;2023-06-05T10:08:02;9.93;;;9.02;;
25653;SDS011;13511;48.622;9.230;2023-06-05T10:10:29;9.90;;;8.90;;
25653;SDS011;13511;48.622;9.230;2023-06-05T10:12:56;9.55;;;8.63;;
25653;SDS011;13511;48.622;9.230;2023-06-05T10:15:22;8.90;;;8.15;;
25653;SDS011;13511;48.622;9.230;2023-06-05T10:17:49;9.80;;;9.13;;
25653;SDS011;13511;48.622;9.230;2023-06-05T10:20:16;11.00;;;8.90;;
25653;SDS011;13511;48.622;9.230;2023-06-05T10:22:42;9.02;;;8.40;;
25653;SDS011;13511;48.622;9.230;2023-06-05T10:25:09;9.82;;;8.95;;
25653;SDS011;13511;48.622;9.230;2023-06-05T10:32:36;9.05;;;8.45;;
25653;SDS011;13511;48.622;9.230;2023-06-05T10:37:54;9.52;;;8.15;;
25653;SDS011;13511;48.622;9.230;2023-06-05T10:40:22;11.07;;;9.48;;
25653;SDS011;13511;48.622;9.230;2023-06-05T10:42:49;10.02;;;8.73;;
25653;SDS011;13511;48.622;9.230;2023-06-05T10:45:30;9.00;;;8.27;;
25653;SDS011;13511;48.622;9.230;2023-06-05T10:47:57;11.90;;;8.40;;
25653;SDS011;13511;48.622;9.230;2023-06-05T10:50:23;8.98;;;8.27;;
25653;SDS011;13511;48.622;9.230;2023-06-05T10:52:51;9.02;;;8.30;;
25653;SDS011;13511;48.622;9.230;2023-06-05T10:55:17;9.50;;;8.40;;
25653;SDS011;13511;48.622;9.230;2023-06-05T11:00:29;8.35;;;7.85;;
25653;SDS011;13511;48.622;9.230;2023-06-05T11:02:55;9.07;;;8.15;;
25653;SDS011;13511;48.622;9.230;2023-06-05T11:05:21;8.43;;;7.93;;
25653;SDS011;13511;48.622;9.230;2023-06-05T11:07:47;9.45;;;8.50;;
25653;SDS011;13511;48.622;9.230;2023-06-05T11:17:41;9.50;;;8.50;;
25653;SDS011;13511;48.622;9.230;2023-06-05T11:20:27;8.40;;;7.80;;
25653;SDS011;13511;48.622;9.230;2023-06-05T11:27:47;9.02;;;7.38;;
25653;SDS011;13511;48.622;9.230;2023-06-05T11:30:14;8.20;;;7.40;;
25653;SDS011;13511;48.622;9.230;2023-06-05T11:32:40;9.30;;;8.35;;
25653;SDS011;13511;48.622;9.230;2023-06-05T11:35:07;9.10;;;8.20;;
25653;SDS011;13511;48.622;9.230;2023-06-05T11:37:34;8.40;;;7.63;;
25653;SDS011;13511;48.622;9.230;2023-06-05T11:40:03;8.50;;;7.90;;
25653;SDS011;13511;48.622;9.230;2023-06-05T11:42:37;8.70;;;8.13;;
25653;SDS011;13511;48.622;9.230;2023-06-05T11:45:10;8.88;;;8.27;;
25653;SDS011;13511;48.622;9.230;2023-06-05T11:47:36;9.23;;;8.43;;
25653;SDS011;13511;48.622;9.230;2023-06-05T11:50:08;9.35;;;8.75;;
25653;SDS011;13511;48.622;9.230;2023-06-05T11:52:35;8.60;;;8.10;;
25653;SDS011;13511;48.622;9.230;2023-06-05T11:55:17;9.25;;;8.43;;
25653;SDS011;13511;48.622;9.230;2023-06-05T11:57:57;9.18;;;8.43;;
25653;SDS011;13511;48.622;9.230;2023-06-05T12:00:25;8.27;;;7.82;;
25653;SDS011;13511;48.622;9.230;2023-06-05T12:02:51;8.52;;;7.82;;
25653;SDS011;13511;48.622;9.230;2023-06-05T12:05:17;8.63;;;7.95;;
25653;SDS011;13511;48.622;9.230;2023-06-05T12:07:43;8.20;;;7.68;;
25653;SDS011;13511;48.622;9.230;2023-06-05T12:10:10;8.98;;;8.38;;
25653;SDS011;13511;48.622;9.230;2023-06-05T12:12:49;10.05;;;9.30;;
25653;SDS011;13511;48.622;9.230;2023-06-05T12:15:15;10.00;;;9.20;;
25653;SDS011;13511;48.622;9.230;2023-06-05T12:17:51;9.25;;;8.45;;
25653;SDS011;13511;48.622;9.230;2023-06-05T12:20:17;9.23;;;8.73;;
25653;SDS011;13511;48.622;9.230;2023-06-05T12:22:43;9.00;;;8.15;;
25653;SDS011;13511;48.622;9.230;2023-06-05T12:25:16;8.73;;;8.10;;
25653;SDS011;13511;48.622;9.230;2023-06-05T12:27:42;8.85;;;8.25;;
25653;SDS011;13511;48.622;9.230;2023-06-05T12:30:10;8.60;;;7.97;;
25653;SDS011;13511;48.622;9.230;2023-06-05T12:32:36;7.78;;;7.38;;
25653;SDS011;13511;48.622;9.230;2023-06-05T12:35:04;8.80;;;8.15;;
25653;SDS011;13511;48.622;9.230;2023-06-05T12:37:32;8.15;;;7.57;;
25653;SDS011;13511;48.622;9.230;2023-06-05T12:40:02;8.68;;;7.90;;
25653;SDS011;13511;48.622;9.230;2023-06-05T12:42:34;7.68;;;7.22;;
25653;SDS011;13511;48.622;9.230;2023-06-05T12:45:01;8.30;;;7.78;;
25653;SDS011;13511;48.622;9.230;2023-06-05T12:47:27;7.95;;;7.45;;
25653;SDS011;13511;48.622;9.230;2023-06-05T12:49:53;8.43;;;7.85;;
25653;SDS011;13511;48.622;9.230;2023-06-05T12:52:21;9.90;;;7.75;;
25653;SDS011;13511;48.622;9.230;2023-06-05T12:54:50;7.50;;;6.90;;
25653;SDS011;13511;48.622;9.230;2023-06-05T12:57:16;7.72;;;7.00;;
25653;SDS011;13511;48.622;9.230;2023-06-05T12:59:46;7.40;;;7.00;;
25653;SDS011;13511;48.622;9.230;2023-06-05T13:02:12;8.00;;;7.43;;
25653;SDS011;13511;48.622;9.230;2023-06-05T13:04:38;8.02;;;7.53;;
25653;SDS011;13511;48.622;9.230;2023-06-05T13:07:05;7.82;;;7.22;;
25653;SDS011;13511;48.622;9.230;2023-06-05T13:09:31;7.80;;;7.18;;
25653;SDS011;13511;48.622;9.230;2023-06-05T13:11:57;8.73;;;7.70;;
25653;SDS011;13511;48.622;9.230;2023-06-05T13:14:28;7.65;;;7.25;;
25653;SDS011;13511;48.622;9.230;2023-06-05T13:16:54;7.55;;;7.00;;
25653;SDS011;13511;48.622;9.230;2023-06-05T13:19:21;7.50;;;7.10;;
25653;SDS011;13511;48.622;9.230;2023-06-05T13:21:47;7.70;;;7.30;;
25653;SDS011;13511;48.622;9.230;2023-06-05T13:24:13;8.52;;;7.90;;
25653;SDS011;13511;48.622;9.230;2023-06-05T13:26:39;8.68;;;7.85;;
25653;SDS011;13511;48.622;9.230;2023-06-05T13:29:07;8.27;;;7.78;;
25653;SDS011;13511;48.622;9.230;2023-06-05T13:31:33;8.38;;;7.68;;
25653;SDS011;13511;48.622;9.230;2023-06-05T13:33:59;7.82;;;7.30;;
25653;SDS011;13511;48.622;9.230;2023-06-05T13:36:25;10.60;;;8.10;;
25653;SDS011;13511;48.622;9.230;2023-06-05T13:38:51;8.60;;;7.60;;
25653;SDS011;13511;48.622;9.230;2023-06-05T13:41:17;8.07;;;7.57;;
25653;SDS011;13511;48.622;9.230;2023-06-05T13:43:44;8.18;;;7.63;;
25653;SDS011;13511;48.622;9.230;2023-06-05T13:46:10;8.73;;;7.97;;
25653;SDS011;13511;48.622;9.230;2023-06-05T13:48:36;8.82;;;8.10;;
25653;SDS011;13511;48.622;9.230;2023-06-05T13:51:03;8.63;;;7.82;;
25653;SDS011;13511;48.622;9.230;2023-06-05T13:53:29;9.05;;;7.85;;
25653;SDS011;13511;48.622;9.230;2023-06-05T13:56:05;7.93;;;7.43;;
25653;SDS011;13511;48.622;9.230;2023-06-05T13:58:32;8.38;;;7.80;;
25653;SDS011;13511;48.622;9.230;2023-06-05T14:00:58;8.50;;;7.80;;
25653;SDS011;13511;48.622;9.230;2023-06-05T14:03:25;8.40;;;7.78;;
25653;SDS011;13511;48.622;9.230;2023-06-05T14:05:51;8.68;;;7.75;;
25653;SDS011;13511;48.622;9.230;2023-06-05T14:08:17;8.00;;;7.60;;
25653;SDS011;13511;48.622;9.230;2023-06-05T14:10:43;9.95;;;8.00;;
25653;SDS011;13511;48.622;9.230;2023-06-05T14:13:09;8.20;;;7.55;;
25653;SDS011;13511;48.622;9.230;2023-06-05T14:15:35;8.02;;;7.57;;
25653;SDS011;13511;48.622;9.230;2023-06-05T14:18:02;7.57;;;7.15;;
25653;SDS011;13511;48.622;9.230;2023-06-05T14:20:29;8.50;;;7.80;;
25653;SDS011;13511;48.622;9.230;2023-06-05T14:22:58;8.43;;;7.85;;
25653;SDS011;13511;48.622;9.230;2023-06-05T14:25:25;7.90;;;7.50;;
25653;SDS011;13511;48.622;9.230;2023-06-05T14:27:57;8.07;;;7.60;;
25653;SDS011;13511;48.622;9.230;2023-06-05T14:30:23;8.27;;;7.53;;
25653;SDS011;13511;48.622;9.230;2023-06-05T14:32:51;7.95;;;7.55;;
25653;SDS011;13511;48.622;9.230;2023-06-05T14:35:17;7.93;;;7.53;;
25653;SDS011;13511;48.622;9.230;2023-06-05T14:37:44;7.97;;;7.57;;
25653;SDS011;13511;48.622;9.230;2023-06-05T14:40:10;8.00;;;7.50;;
25653;SDS011;13511;48.622;9.230;2023-06-05T14:42:36;8.10;;;7.60;;
25653;SDS011;13511;48.622;9.230;2023-06-05T14:45:02;8.88;;;8.10;;
25653;SDS011;13511;48.622;9.230;2023-06-05T14:47:28;8.32;;;7.82;;
25653;SDS011;13511;48.622;9.230;2023-06-05T14:49:54;8.02;;;7.63;;
25653;SDS011;13511;48.622;9.230;2023-06-05T14:52:20;8.10;;;7.40;;
25653;SDS011;13511;48.622;9.230;2023-06-05T14:54:46;8.00;;;7.60;;
25653;SDS011;13511;48.622;9.230;2023-06-05T14:57:13;8.35;;;7.65;;
25653;SDS011;13511;48.622;9.230;2023-06-05T14:59:40;8.30;;;7.78;;
25653;SDS011;13511;48.622;9.230;2023-06-05T15:02:06;8.77;;;8.07;;
25653;SDS011;13511;48.622;9.230;2023-06-05T15:04:32;8.50;;;8.05;;
25653;SDS011;13511;48.622;9.230;2023-06-05T15:06:58;9.50;;;8.30;;
25653;SDS011;13511;48.622;9.230;2023-06-05T15:09:25;9.07;;;8.15;;
25653;SDS011;13511;48.622;9.230;2023-06-05T15:11:51;8.85;;;8.10;;
25653;SDS011;13511;48.622;9.230;2023-06-05T15:14:20;8.45;;;7.72;;
25653;SDS011;13511;48.622;9.230;2023-06-05T15:16:46;9.57;;;8.25;;
25653;SDS011;13511;48.622;9.230;2023-06-05T15:19:12;8.70;;;8.10;;